createdAt,value
2022-12-18T00:00:13.237Z,-3.64
2022-12-18T00:03:01.930Z,-3.67
2022-12-18T00:05:30.969Z,-3.69
2022-12-18T00:07:59.498Z,-3.71
2022-12-18T00:10:29.761Z,-3.73
2022-12-18T00:12:58.306Z,-3.73
2022-12-18T00:15:26.963Z,-3.76
2022-12-18T00:17:55.490Z,-3.77
2022-12-18T00:20:26.726Z,-3.80
2022-12-18T00:22:56.032Z,-3.83
2022-12-18T00:25:24.633Z,-3.85
2022-12-18T00:27:53.245Z,-3.86
2022-12-18T00:30:21.990Z,-3.87
2022-12-18T00:32:50.549Z,-3.89
2022-12-18T00:35:19.253Z,-3.91
2022-12-18T00:37:47.804Z,-3.94
2022-12-18T00:40:16.504Z,-3.96
2022-12-18T00:42:57.044Z,-3.96
2022-12-18T00:45:28.668Z,-3.94
2022-12-18T00:47:57.619Z,-3.93
2022-12-18T00:50:26.684Z,-3.92
2022-12-18T00:52:55.250Z,-3.91
2022-12-18T00:55:24.305Z,-3.91
2022-12-18T00:57:53.678Z,-3.91
2022-12-18T01:00:23.215Z,-3.90
2022-12-18T01:02:52.183Z,-3.90
2022-12-18T01:05:21.011Z,-3.90
2022-12-18T01:07:49.668Z,-3.91
2022-12-18T01:10:18.660Z,-3.91
2022-12-18T01:12:47.245Z,-3.92
2022-12-18T01:15:16.821Z,-3.92
2022-12-18T01:17:45.583Z,-3.91
2022-12-18T01:20:15.097Z,-3.88
2022-12-18T01:22:43.678Z,-3.87
2022-12-18T01:25:12.193Z,-3.87
2022-12-18T01:27:40.856Z,-3.88
2022-12-18T01:30:10.391Z,-3.88
2022-12-18T01:32:39.081Z,-3.88
2022-12-18T01:35:08.547Z,-3.89
2022-12-18T01:37:37.062Z,-3.88
2022-12-18T01:40:06.616Z,-3.88
2022-12-18T01:42:35.211Z,-3.88
2022-12-18T01:45:12.444Z,-3.88
2022-12-18T01:48:09.749Z,-3.88
2022-12-18T01:50:42.966Z,-3.90
2022-12-18T01:53:19.971Z,-3.92
2022-12-18T01:55:54.813Z,-3.93
2022-12-18T01:58:53.810Z,-3.94
2022-12-18T02:01:24.876Z,-3.94
2022-12-18T02:03:54.177Z,-3.92
2022-12-18T02:06:34.383Z,-3.90
2022-12-18T02:09:16.221Z,-3.86
2022-12-18T02:12:26.338Z,-3.83
2022-12-18T02:15:03.811Z,-3.81
2022-12-18T02:17:48.824Z,-3.78
2022-12-18T02:20:55.208Z,-3.73
2022-12-18T02:23:44.017Z,-3.69
2022-12-18T02:26:34.722Z,-3.69
2022-12-18T02:29:12.488Z,-3.69
2022-12-18T02:31:52.546Z,-3.70
2022-12-18T02:34:27.771Z,-3.66
2022-12-18T02:36:58.881Z,-3.63
2022-12-18T02:39:30.544Z,-3.61
2022-12-18T02:42:00.704Z,-3.58
2022-12-18T02:44:29.209Z,-3.56
2022-12-18T02:46:57.962Z,-3.55
2022-12-18T02:50:00.476Z,-3.57
2022-12-18T02:53:05.292Z,-3.58
2022-12-18T02:56:04.749Z,-3.56
2022-12-18T02:58:45.720Z,-3.52
2022-12-18T03:01:34.661Z,-3.51
2022-12-18T03:04:22.521Z,-3.48
2022-12-18T03:06:56.906Z,-3.46
2022-12-18T03:09:37.638Z,-3.45
2022-12-18T03:12:24.021Z,-3.44
2022-12-18T03:15:18.284Z,-3.44
2022-12-18T03:17:53.843Z,-3.45
2022-12-18T03:20:26.862Z,-3.45
2022-12-18T03:23:03.798Z,-3.45
2022-12-18T03:25:33.988Z,-3.46
2022-12-18T03:28:06.513Z,-3.46
2022-12-18T03:30:39.559Z,-3.45
2022-12-18T03:33:22.848Z,-3.42
2022-12-18T03:35:51.758Z,-3.40
2022-12-18T03:38:20.628Z,-3.41
2022-12-18T03:41:15.486Z,-3.41
2022-12-18T03:43:58.806Z,-3.42
2022-12-18T03:46:48.157Z,-3.42
2022-12-18T03:49:31.401Z,-3.43
2022-12-18T03:52:12.243Z,-3.41
2022-12-18T03:54:42.543Z,-3.41
2022-12-18T03:57:19.442Z,-3.39
2022-12-18T03:59:52.538Z,-3.37
2022-12-18T04:02:23.852Z,-3.38
2022-12-18T04:04:59.078Z,-3.39
2022-12-18T04:07:28.457Z,-3.40
2022-12-18T04:10:00.896Z,-3.41
2022-12-18T04:12:30.955Z,-3.46
2022-12-18T04:14:59.479Z,-3.48
2022-12-18T04:17:27.987Z,-3.50
2022-12-18T04:19:56.518Z,-3.53
2022-12-18T04:22:25.063Z,-3.55
2022-12-18T04:24:53.633Z,-3.56
2022-12-18T04:27:22.684Z,-3.61
2022-12-18T04:29:51.276Z,-3.63
2022-12-18T04:32:20.103Z,-3.62
2022-12-18T04:34:49.033Z,-3.62
2022-12-18T04:37:17.616Z,-3.60
2022-12-18T04:39:46.160Z,-3.59
2022-12-18T04:42:14.832Z,-3.57
2022-12-18T04:44:43.313Z,-3.55
2022-12-18T04:47:11.851Z,-3.57
2022-12-18T04:49:40.486Z,-3.56
2022-12-18T04:52:09.043Z,-3.53
2022-12-18T04:54:37.703Z,-3.51
2022-12-18T04:57:06.227Z,-3.50
2022-12-18T04:59:34.807Z,-3.50
2022-12-18T05:02:03.405Z,-3.53
2022-12-18T05:04:32.463Z,-3.52
2022-12-18T05:07:01.137Z,-3.51
2022-12-18T05:09:29.699Z,-3.47
2022-12-18T05:11:58.258Z,-3.47
2022-12-18T05:14:28.673Z,-3.45
2022-12-18T05:17:00.848Z,-3.42
2022-12-18T05:19:30.006Z,-3.44
2022-12-18T05:21:58.826Z,-3.51
2022-12-18T05:24:27.398Z,-3.54
2022-12-18T05:26:57.454Z,-3.54
2022-12-18T05:29:26.276Z,-3.53
2022-12-18T05:31:54.847Z,-3.53
2022-12-18T05:34:23.443Z,-3.53
2022-12-18T05:36:51.949Z,-3.54
2022-12-18T05:39:20.422Z,-3.54
2022-12-18T05:41:48.988Z,-3.57
2022-12-18T05:44:17.521Z,-3.61
2022-12-18T05:46:46.206Z,-3.63
2022-12-18T05:49:14.757Z,-3.65
2022-12-18T05:51:43.257Z,-3.68
2022-12-18T05:54:12.193Z,-3.70
2022-12-18T05:56:45.548Z,-3.70
2022-12-18T05:59:17.043Z,-3.72
2022-12-18T06:01:45.664Z,-3.70
2022-12-18T06:04:14.341Z,-3.67
2022-12-18T06:06:42.877Z,-3.65
2022-12-18T06:09:13.008Z,-3.63
2022-12-18T06:11:41.710Z,-3.63
2022-12-18T06:14:11.101Z,-3.67
2022-12-18T06:16:39.909Z,-3.69
2022-12-18T06:19:08.483Z,-3.68
2022-12-18T06:21:37.160Z,-3.68
2022-12-18T06:24:06.305Z,-3.68
2022-12-18T06:26:34.850Z,-3.68
2022-12-18T06:29:03.665Z,-3.71
2022-12-18T06:31:32.355Z,-3.73
2022-12-18T06:34:04.989Z,-3.75
2022-12-18T06:36:33.836Z,-3.75
2022-12-18T06:39:02.449Z,-3.75
2022-12-18T06:41:31.173Z,-3.72
2022-12-18T06:44:00.264Z,-3.71
2022-12-18T06:46:29.010Z,-3.73
2022-12-18T06:48:57.603Z,-3.72
2022-12-18T06:51:27.455Z,-3.72
2022-12-18T06:53:56.088Z,-3.71
2022-12-18T06:56:24.740Z,-3.70
2022-12-18T06:58:53.626Z,-3.70
2022-12-18T07:01:23.191Z,-3.67
2022-12-18T07:03:57.208Z,-3.70
2022-12-18T07:06:27.210Z,-3.71
2022-12-18T07:08:56.359Z,-3.70
2022-12-18T07:11:25.662Z,-3.68
2022-12-18T07:13:55.497Z,-3.66
2022-12-18T07:16:25.639Z,-3.62
2022-12-18T07:18:56.667Z,-3.59
2022-12-18T07:21:25.791Z,-3.57
2022-12-18T07:23:54.394Z,-3.56
2022-12-18T07:26:23.842Z,-3.53
2022-12-18T07:28:58.635Z,-3.50
2022-12-18T07:31:28.205Z,-3.46
2022-12-18T07:33:56.901Z,-3.40
2022-12-18T07:36:26.114Z,-3.37
2022-12-18T07:38:54.670Z,-3.37
2022-12-18T07:41:23.450Z,-3.35
2022-12-18T07:43:52.276Z,-3.35
2022-12-18T07:46:21.052Z,-3.38
2022-12-18T07:48:50.446Z,-3.38
2022-12-18T07:51:19.965Z,-3.35
2022-12-18T07:53:49.331Z,-3.33
2022-12-18T07:56:30.971Z,-3.32
2022-12-18T07:59:00.306Z,-3.26
2022-12-18T08:01:29.377Z,-3.24
2022-12-18T08:03:58.983Z,-3.21
2022-12-18T08:06:27.842Z,-3.17
2022-12-18T08:08:57.173Z,-3.14
2022-12-18T08:11:28.723Z,-3.10
2022-12-18T08:13:57.936Z,-3.07
2022-12-18T08:16:26.812Z,-3.04
2022-12-18T08:18:55.987Z,-3.07
2022-12-18T08:21:28.680Z,-3.09
2022-12-18T08:24:01.197Z,-3.09
2022-12-18T08:26:32.557Z,-3.06
2022-12-18T08:29:01.742Z,-3.01
2022-12-18T08:31:32.277Z,-2.97
2022-12-18T08:34:01.178Z,-2.93
2022-12-18T08:36:29.682Z,-2.90
2022-12-18T08:38:58.419Z,-2.86
2022-12-18T08:41:27.761Z,-2.83
2022-12-18T08:44:15.197Z,-2.77
2022-12-18T08:46:44.973Z,-2.75
2022-12-18T08:49:13.635Z,-2.72
2022-12-18T08:51:42.175Z,-2.67
2022-12-18T08:54:14.736Z,-2.61
2022-12-18T08:56:43.308Z,-2.56
2022-12-18T08:59:18.858Z,-2.51
2022-12-18T09:01:48.883Z,-2.48
2022-12-18T09:04:18.121Z,-2.42
2022-12-18T09:06:46.685Z,-2.38
2022-12-18T09:09:15.343Z,-2.36
2022-12-18T09:11:43.975Z,-2.35
2022-12-18T09:14:12.570Z,-2.33
2022-12-18T09:16:41.197Z,-2.25
2022-12-18T09:19:10.867Z,-2.18
2022-12-18T09:21:47.725Z,-2.08
2022-12-18T09:24:17.765Z,-1.98
2022-12-18T09:26:47.438Z,-1.86
2022-12-18T09:29:19.086Z,-1.81
2022-12-18T09:31:48.401Z,-1.73
2022-12-18T09:34:17.845Z,-1.64
2022-12-18T09:36:46.389Z,-1.56
2022-12-18T09:39:16.066Z,-1.52
2022-12-18T09:41:55.888Z,-1.49
2022-12-18T09:44:25.893Z,-1.45
2022-12-18T09:47:16.236Z,-1.41
2022-12-18T09:49:50.552Z,-1.36
2022-12-18T09:52:33.150Z,-1.32
2022-12-18T09:55:24.004Z,-1.24
2022-12-18T09:57:58.405Z,-1.20
2022-12-18T10:00:27.001Z,-1.16
2022-12-18T10:03:04.138Z,-1.15
2022-12-18T10:06:03.237Z,-1.20
2022-12-18T10:08:50.317Z,-1.20
2022-12-18T10:12:04.723Z,-1.16
2022-12-18T10:14:49.548Z,-1.06
2022-12-18T10:17:35.941Z,-1.03
2022-12-18T10:20:42.840Z,-1.01
2022-12-18T10:23:26.566Z,-0.97
2022-12-18T10:26:05.372Z,-0.96
2022-12-18T10:28:38.239Z,-0.94
2022-12-18T10:31:18.240Z,-0.91
2022-12-18T10:33:47.627Z,-0.95
2022-12-18T10:36:16.551Z,-0.94
2022-12-18T10:38:45.160Z,-0.90
2022-12-18T10:41:24.254Z,-0.90
2022-12-18T10:44:21.223Z,-0.86
2022-12-18T10:46:57.060Z,-0.83
2022-12-18T10:49:31.057Z,-0.84
2022-12-18T10:52:20.093Z,-0.83
2022-12-18T10:55:04.331Z,-0.88
2022-12-18T10:57:42.746Z,-0.90
2022-12-18T11:00:31.704Z,-0.92
2022-12-18T11:03:00.580Z,-1.00
2022-12-18T11:05:33.988Z,-1.06
2022-12-18T11:08:03.032Z,-1.06
2022-12-18T11:10:36.387Z,-1.02
2022-12-18T11:13:28.618Z,-0.95
2022-12-18T11:15:57.777Z,-0.90
2022-12-18T11:18:35.928Z,-0.87
2022-12-18T11:21:09.151Z,-0.86
2022-12-18T11:23:45.893Z,-0.84
2022-12-18T11:26:14.616Z,-0.77
2022-12-18T11:28:52.229Z,-0.74
2022-12-18T11:31:29.761Z,-0.76
2022-12-18T11:37:02.103Z,-0.75
2022-12-18T11:39:46.313Z,-0.80
2022-12-18T11:42:55.591Z,-0.86
2022-12-18T11:45:35.225Z,-0.88
2022-12-18T11:48:26.565Z,-0.85
2022-12-18T11:51:01.425Z,-0.87
2022-12-18T11:53:31.448Z,-0.82
2022-12-18T11:56:15.076Z,-0.75
2022-12-18T11:59:14.308Z,-0.71
2022-12-18T12:01:59.468Z,-0.67
2022-12-18T12:05:00.604Z,-0.65
2022-12-18T12:08:03.539Z,-0.61
2022-12-18T12:10:59.997Z,-0.51
2022-12-18T12:13:54.619Z,-0.39
2022-12-18T12:16:38.350Z,-0.31
2022-12-18T12:19:29.896Z,-0.33
2022-12-18T12:22:19.968Z,-0.30
2022-12-18T12:25:13.309Z,-0.32
2022-12-18T12:28:06.738Z,-0.33
2022-12-18T12:30:46.596Z,-0.32
2022-12-18T12:33:37.822Z,-0.33
2022-12-18T12:36:40.109Z,-0.31
2022-12-18T12:39:17.373Z,-0.34
2022-12-18T12:42:06.374Z,-0.32
2022-12-18T12:44:55.683Z,-0.28
2022-12-18T12:47:36.978Z,-0.22
2022-12-18T12:50:15.426Z,-0.23
2022-12-18T12:52:50.683Z,-0.25
2022-12-18T12:55:28.186Z,-0.25
2022-12-18T12:58:24.494Z,-0.30
2022-12-18T13:01:05.971Z,-0.40
2022-12-18T13:03:48.398Z,-0.49
2022-12-18T13:06:33.784Z,-0.57
2022-12-18T13:09:04.369Z,-0.64
2022-12-18T13:12:01.379Z,-0.70
2022-12-18T13:14:40.412Z,-0.75
2022-12-18T13:17:20.965Z,-0.81
2022-12-18T13:19:52.971Z,-0.94
2022-12-18T13:22:32.773Z,-1.07
2022-12-18T13:25:01.801Z,-1.17
2022-12-18T13:27:45.743Z,-1.28
2022-12-18T13:30:33.106Z,-1.39
2022-12-18T13:33:19.583Z,-1.49
2022-12-18T13:35:48.127Z,-1.54
2022-12-18T13:38:43.540Z,-1.60
2022-12-18T13:41:27.496Z,-1.68
2022-12-18T13:44:10.977Z,-1.74
2022-12-18T13:46:50.789Z,-1.80
2022-12-18T13:49:39.776Z,-1.86
2022-12-18T13:52:22.149Z,-1.93
2022-12-18T13:54:56.039Z,-1.99
2022-12-18T13:57:36.517Z,-2.03
2022-12-18T14:00:23.001Z,-2.06
2022-12-18T14:02:52.664Z,-2.08
2022-12-18T14:06:02.543Z,-2.10
2022-12-18T14:08:40.265Z,-2.15
2022-12-18T14:11:23.355Z,-2.21
2022-12-18T14:13:52.142Z,-2.24
2022-12-18T14:16:21.063Z,-2.29
2022-12-18T14:19:04.150Z,-2.37
2022-12-18T14:21:51.097Z,-2.45
2022-12-18T14:24:22.728Z,-2.52
2022-12-18T14:26:52.299Z,-2.63
2022-12-18T14:29:32.071Z,-2.75
2022-12-18T14:32:18.938Z,-2.85
2022-12-18T14:34:55.141Z,-2.93
2022-12-18T14:37:28.415Z,-3.02
2022-12-18T14:40:10.862Z,-3.06
2022-12-18T14:42:40.077Z,-3.10
2022-12-18T14:45:43.259Z,-3.13
2022-12-18T14:48:24.077Z,-3.20
2022-12-18T14:51:07.035Z,-3.26
2022-12-18T14:54:03.509Z,-3.34
2022-12-18T14:56:38.147Z,-3.39
2022-12-18T14:59:24.654Z,-3.43
2022-12-18T15:02:22.790Z,-3.48
2022-12-18T15:05:17.570Z,-3.52
2022-12-18T15:07:59.285Z,-3.58
2022-12-18T15:11:39.005Z,-3.62
2022-12-18T15:14:43.232Z,-3.73
2022-12-18T15:17:24.286Z,-3.84
2022-12-18T15:20:02.376Z,-3.92
2022-12-18T15:22:36.521Z,-3.97
2022-12-18T15:25:35.407Z,-4.01
2022-12-18T15:28:16.974Z,-4.06
2022-12-18T15:31:10.284Z,-4.14
2022-12-18T15:33:44.066Z,-4.21
2022-12-18T15:36:18.032Z,-4.27
2022-12-18T15:38:54.711Z,-4.34
2022-12-18T15:41:25.522Z,-4.41
2022-12-18T15:43:54.749Z,-4.48
2022-12-18T15:46:26.316Z,-4.54
2022-12-18T15:49:02.552Z,-4.61
2022-12-18T15:51:38.231Z,-4.69
2022-12-18T15:54:14.347Z,-4.77
2022-12-18T15:57:01.497Z,-4.87
2022-12-18T15:59:30.073Z,-4.94
2022-12-18T16:01:59.404Z,-5.03
2022-12-18T16:04:28.461Z,-5.14
2022-12-18T16:09:48.688Z,-5.37
2022-12-18T16:12:26.155Z,-5.49
2022-12-18T16:14:54.776Z,-5.60
2022-12-18T16:17:23.391Z,-5.69
2022-12-18T16:19:52.097Z,-5.76
2022-12-18T16:22:28.257Z,-5.83
2022-12-18T16:24:58.212Z,-5.89
2022-12-18T16:27:27.235Z,-5.99
2022-12-18T16:29:55.899Z,-6.08
2022-12-18T16:32:24.792Z,-6.17
2022-12-18T16:34:53.546Z,-6.26
2022-12-18T16:37:22.205Z,-6.34
2022-12-18T16:39:50.769Z,-6.43
2022-12-18T16:42:21.186Z,-6.52
2022-12-18T16:44:51.251Z,-6.61
2022-12-18T16:47:20.244Z,-6.67
2022-12-18T16:49:51.910Z,-6.73
2022-12-18T16:52:21.182Z,-6.78
2022-12-18T16:54:49.872Z,-6.83
2022-12-18T16:57:21.609Z,-6.87
2022-12-18T16:59:54.548Z,-6.91
2022-12-18T17:02:27.003Z,-6.95
2022-12-18T17:04:58.579Z,-7.00
2022-12-18T17:07:28.513Z,-7.04
2022-12-18T17:09:58.030Z,-7.10
2022-12-18T17:12:27.455Z,-7.14
2022-12-18T17:14:56.428Z,-7.19
2022-12-18T17:17:24.999Z,-7.24
2022-12-18T17:19:53.639Z,-7.29
2022-12-18T17:22:23.482Z,-7.33
2022-12-18T17:24:52.399Z,-7.39
2022-12-18T17:27:21.065Z,-7.46
2022-12-18T17:29:49.937Z,-7.54
2022-12-18T17:32:18.535Z,-7.60
2022-12-18T17:34:47.318Z,-7.66
2022-12-18T17:37:16.334Z,-7.71
2022-12-18T17:39:44.918Z,-7.76
2022-12-18T17:42:14.865Z,-7.79
2022-12-18T17:44:44.980Z,-7.82
2022-12-18T17:47:14.389Z,-7.83
2022-12-18T17:49:43.100Z,-7.87
2022-12-18T17:52:11.758Z,-7.91
2022-12-18T17:54:42.157Z,-7.96
2022-12-18T17:57:11.207Z,-8.04
2022-12-18T17:59:39.877Z,-8.07
2022-12-18T18:02:11.937Z,-8.12
2022-12-18T18:04:40.911Z,-8.17
2022-12-18T18:07:10.221Z,-8.24
2022-12-18T18:09:38.867Z,-8.29
2022-12-18T18:12:26.336Z,-8.33
2022-12-18T18:14:54.886Z,-8.38
2022-12-18T18:17:23.617Z,-8.42
2022-12-18T18:19:52.181Z,-8.45
2022-12-18T18:22:20.737Z,-8.50
2022-12-18T18:24:51.909Z,-8.53
2022-12-18T18:27:20.523Z,-8.58
2022-12-18T18:29:49.172Z,-8.62
2022-12-18T18:32:17.884Z,-8.67
2022-12-18T18:34:46.486Z,-8.73
2022-12-18T18:37:15.101Z,-8.76
2022-12-18T18:39:43.645Z,-8.81
2022-12-18T18:42:12.957Z,-8.85
2022-12-18T18:44:45.868Z,-8.88
2022-12-18T18:47:17.593Z,-8.89
2022-12-18T18:49:46.272Z,-8.92
2022-12-18T18:52:15.429Z,-8.93
2022-12-18T18:55:03.844Z,-8.94
2022-12-18T18:57:33.844Z,-8.95
2022-12-18T19:00:02.543Z,-8.95
2022-12-18T19:02:31.248Z,-8.97
2022-12-18T19:04:59.953Z,-9.00
2022-12-18T19:07:30.543Z,-9.02
2022-12-18T19:10:04.656Z,-9.04
2022-12-18T19:12:55.464Z,-9.06
2022-12-18T19:15:24.146Z,-9.09
2022-12-18T19:17:53.311Z,-9.13
2022-12-18T19:20:22.123Z,-9.18
2022-12-18T19:22:55.732Z,-9.23
2022-12-18T19:25:38.125Z,-9.28
2022-12-18T19:28:21.811Z,-9.30
2022-12-18T19:30:58.804Z,-9.33
2022-12-18T19:33:43.254Z,-9.35
2022-12-18T19:36:19.401Z,-9.34
2022-12-18T19:38:49.355Z,-9.31
2022-12-18T19:41:18.923Z,-9.30
2022-12-18T19:43:48.505Z,-9.30
2022-12-18T19:46:22.089Z,-9.31
2022-12-18T19:48:51.595Z,-9.31
2022-12-18T19:51:27.764Z,-9.31
2022-12-18T19:53:59.820Z,-9.29
2022-12-18T19:56:33.798Z,-9.29
2022-12-18T19:59:05.291Z,-9.26
2022-12-18T20:01:36.725Z,-9.27
2022-12-18T20:04:05.699Z,-9.26
2022-12-18T20:06:53.999Z,-9.26
2022-12-18T20:09:22.873Z,-9.27
2022-12-18T20:11:52.378Z,-9.26
2022-12-18T20:14:23.215Z,-9.24
2022-12-18T20:16:52.652Z,-9.23
2022-12-18T20:19:22.607Z,-9.23
2022-12-18T20:21:51.325Z,-9.22
2022-12-18T20:24:20.012Z,-9.20
2022-12-18T20:26:48.613Z,-9.20
2022-12-18T20:29:17.952Z,-9.19
2022-12-18T20:31:46.594Z,-9.18
2022-12-18T20:34:15.225Z,-9.15
2022-12-18T20:36:44.685Z,-9.13
2022-12-18T20:39:14.405Z,-9.11
2022-12-18T20:41:45.781Z,-9.10
2022-12-18T20:44:21.558Z,-9.09
2022-12-18T20:46:56.500Z,-9.07
2022-12-18T20:49:26.885Z,-9.05
2022-12-18T20:51:57.940Z,-9.04
2022-12-18T20:54:27.638Z,-9.05
2022-12-18T20:56:56.898Z,-9.07
2022-12-18T20:59:26.102Z,-9.08
2022-12-18T21:01:55.724Z,-9.10
2022-12-18T21:04:24.972Z,-9.14
2022-12-18T21:07:00.455Z,-9.20
2022-12-18T21:09:36.924Z,-9.24
2022-12-18T21:12:40.354Z,-9.31
2022-12-18T21:15:16.926Z,-9.41
2022-12-18T21:17:46.338Z,-9.46
2022-12-18T21:20:17.924Z,-9.51
2022-12-18T21:22:49.349Z,-9.56
2022-12-18T21:25:18.110Z,-9.63
2022-12-18T21:27:46.658Z,-9.68
2022-12-18T21:30:15.543Z,-9.74
2022-12-18T21:32:44.273Z,-9.78
2022-12-18T21:35:12.979Z,-9.80
2022-12-18T21:37:41.529Z,-9.81
2022-12-18T21:40:10.992Z,-9.82
2022-12-18T21:42:58.222Z,-9.83
2022-12-18T21:45:26.888Z,-9.84
2022-12-18T21:47:55.525Z,-9.84
2022-12-18T21:50:24.278Z,-9.84
2022-12-18T21:52:52.751Z,-9.85
2022-12-18T21:55:21.430Z,-9.84
2022-12-18T21:57:50.338Z,-9.84
2022-12-18T22:00:19.847Z,-9.83
2022-12-18T22:03:02.323Z,-9.82
2022-12-18T22:05:37.873Z,-9.79
2022-12-18T22:08:07.593Z,-9.75
2022-12-18T22:10:38.042Z,-9.71
2022-12-18T22:13:07.689Z,-9.67
2022-12-18T22:15:36.320Z,-9.62
2022-12-18T22:18:04.977Z,-9.55
2022-12-18T22:20:33.589Z,-9.49
2022-12-18T22:23:05.601Z,-9.44
2022-12-18T22:25:35.788Z,-9.41
2022-12-18T22:28:26.275Z,-9.37
2022-12-18T22:30:59.048Z,-9.34
2022-12-18T22:33:28.639Z,-9.30
2022-12-18T22:35:57.486Z,-9.26
2022-12-18T22:38:26.030Z,-9.22
2022-12-18T22:40:55.376Z,-9.20
2022-12-18T22:43:24.108Z,-9.18
2022-12-18T22:45:52.780Z,-9.18
2022-12-18T22:48:21.358Z,-9.18
2022-12-18T22:51:17.597Z,-9.14
2022-12-18T22:53:46.961Z,-9.17
2022-12-18T22:56:21.382Z,-9.17
2022-12-18T22:58:52.636Z,-9.20
2022-12-18T23:01:25.339Z,-9.23
2022-12-18T23:03:55.098Z,-9.25
2022-12-18T23:06:26.096Z,-9.27
2022-12-18T23:08:58.290Z,-9.30
2022-12-18T23:11:27.856Z,-9.34
2022-12-18T23:13:56.719Z,-9.36
2022-12-18T23:16:28.523Z,-9.40
2022-12-18T23:18:57.247Z,-9.42
2022-12-18T23:21:25.886Z,-9.44
2022-12-18T23:23:56.007Z,-9.46
2022-12-18T23:26:25.944Z,-9.49
2022-12-18T23:28:57.841Z,-9.50
2022-12-18T23:31:30.437Z,-9.53
2022-12-18T23:46:29.862Z,-9.69
2022-12-18T23:49:02.097Z,-9.75
2022-12-18T23:51:32.163Z,-9.76
2022-12-18T23:54:02.673Z,-9.77
2022-12-18T23:56:31.540Z,-9.78
2022-12-18T23:59:00.221Z,-9.78
